Time,TemperatureF,DewpointF,PressureIn,WindDirection,WindDirectionDegrees,WindSpeedMPH,WindSpeedGustMPH,Humidity,HourlyPrecipIn,Conditions,Clouds,dailyrainin,SoftwareType,DateUTC
2013-06-21 00:03:00,74.2,68.0,30.02,ESE,111,1.0,2.0,81,0.00,,,0.00,weatherlink.com 1.10,2013-06-21 05:03:00,
2013-06-21 00:18:00,73.8,68.0,30.02,ESE,113,2.0,2.0,82,0.00,,,0.00,weatherlink.com 1.10,2013-06-21 05:18:00,
2013-06-21 00:33:00,73.7,68.0,30.02,ESE,108,2.0,2.0,82,0.00,,,0.00,weatherlink.com 1.10,2013-06-21 05:33:00,
2013-06-21 00:48:00,73.5,68.0,30.02,ESE,119,2.0,2.0,83,0.00,,,0.00,weatherlink.com 1.10,2013-06-21 05:48:00,
2013-06-21 01:03:00,73.3,68.0,30.02,ESE,113,1.0,2.0,83,0.00,,,0.00,weatherlink.com 1.10,2013-06-21 06:03:00,
2013-06-21 01:18:00,73.1,68.0,30.02,ESE,117,1.0,2.0,84,0.00,,,0.00,weatherlink.com 1.10,2013-06-21 06:18:00,
2013-06-21 01:33:00,72.9,68.0,30.01,SE,124,1.0,2.0,84,0.00,,,0.00,weatherlink.com 1.10,2013-06-21 06:33:00,
2013-06-21 01:48:00,72.7,68.0,30.01,ESE,114,1.0,2.0,85,0.00,,,0.00,weatherlink.com 1.10,2013-06-21 06:48:00,
2013-06-21 02:03:00,72.5,68.0,30.01,East,100,1.0,2.0,85,0.00,,,0.00,weatherlink.com 1.10,2013-06-21 07:03:00,
2013-06-21 02:18:00,72.4,68.0,30.00,ESE,111,1.0,2.0,85,0.00,,,0.00,weatherlink.com 1.10,2013-06-21 07:18:00,
2013-06-21 02:33:00,71.9,68.0,29.99,ESE,122,1.0,2.0,86,0.00,,,0.00,weatherlink.com 1.10,2013-06-21 07:33:00,
2013-06-21 02:48:00,71.4,67.0,29.99,East,99,1.0,2.0,87,0.00,,,0.00,weatherlink.com 1.10,2013-06-21 07:48:00,
2013-06-21 03:03:00,71.2,67.0,29.98,ESE,113,1.0,3.0,87,0.00,,,0.00,weatherlink.com 1.10,2013-06-21 08:03:00,
2013-06-21 03:18:00,70.9,67.0,29.99,SE,129,1.0,2.0,88,0.00,,,0.00,weatherlink.com 1.10,2013-06-21 08:18:00,
2013-06-21 03:33:00,70.5,67.0,29.98,SE,127,0.0,2.0,88,0.00,,,0.00,weatherlink.com 1.10,2013-06-21 08:33:00,
2013-06-21 03:48:00,70.5,67.0,29.99,East,101,1.0,2.0,89,0.00,,,0.00,weatherlink.com 1.10,2013-06-21 08:48:00,
2013-06-21 04:03:00,70.5,67.0,29.99,SE,124,1.0,2.0,89,0.00,,,0.00,weatherlink.com 1.10,2013-06-21 09:03:00,
2013-06-21 04:18:00,70.2,67.0,29.99,East,97,0.0,2.0,89,0.00,,,0.00,weatherlink.com 1.10,2013-06-21 09:18:00,
2013-06-21 04:33:00,70.0,67.0,29.99,ESE,110,1.0,1.0,89,0.00,,,0.00,weatherlink.com 1.10,2013-06-21 09:33:00,
2013-06-21 04:48:00,69.8,67.0,29.99,ESE,108,1.0,2.0,90,0.00,,,0.00,weatherlink.com 1.10,2013-06-21 09:48:00,
2013-06-21 05:03:00,69.6,67.0,29.99,ESE,114,1.0,1.0,90,0.00,,,0.00,weatherlink.com 1.10,2013-06-21 10:03:00,
2013-06-21 05:18:00,69.4,67.0,29.99,ESE,110,0.0,1.0,91,0.00,,,0.00,weatherlink.com 1.10,2013-06-21 10:18:00,
2013-06-21 05:33:00,69.2,67.0,29.99,East,101,1.0,2.0,91,0.00,,,0.00,weatherlink.com 1.10,2013-06-21 10:33:00,
2013-06-21 05:48:00,69.1,66.0,29.99,ESE,103,1.0,1.0,91,0.00,,,0.00,weatherlink.com 1.10,2013-06-21 10:48:00,
2013-06-21 06:03:00,69.2,67.0,29.99,SE,131,1.0,2.0,91,0.00,,,0.00,weatherlink.com 1.10,2013-06-21 11:03:00,
2013-06-21 06:18:00,69.2,67.0,29.99,SE,124,0.0,3.0,91,0.00,,,0.00,weatherlink.com 1.10,2013-06-21 11:18:00,
2013-06-21 06:33:00,69.4,67.0,29.99,ESE,116,1.0,1.0,92,0.00,,,0.00,weatherlink.com 1.10,2013-06-21 11:33:00,
2013-06-21 06:48:00,69.7,67.0,29.99,ESE,105,1.0,3.0,92,0.00,,,0.00,weatherlink.com 1.10,2013-06-21 11:48:00,
2013-06-21 07:03:00,70.4,68.0,30.00,East,99,1.0,1.0,91,0.00,,,0.00,weatherlink.com 1.10,2013-06-21 12:03:00,
2013-06-21 07:18:00,70.9,68.0,30.00,ESE,107,1.0,2.0,90,0.00,,,0.00,weatherlink.com 1.10,2013-06-21 12:18:00,
2013-06-21 07:33:00,71.8,69.0,30.01,ESE,102,0.0,2.0,90,0.00,,,0.00,weatherlink.com 1.10,2013-06-21 12:33:00,
2013-06-21 07:48:00,73.2,69.0,30.02,SE,128,0.0,3.0,87,0.00,,,0.00,weatherlink.com 1.10,2013-06-21 12:48:00,
2013-06-21 08:03:00,73.0,69.0,30.02,ESE,112,1.0,2.0,88,0.00,,,0.00,weatherlink.com 1.10,2013-06-21 13:03:00,
2013-06-21 08:18:00,73.1,69.0,30.02,ESE,110,0.0,2.0,88,0.00,,,0.00,weatherlink.com 1.10,2013-06-21 13:18:00,
2013-06-21 08:33:00,74.9,71.0,30.02,East,95,1.0,2.0,87,0.00,,,0.00,weatherlink.com 1.10,2013-06-21 13:33:00,
2013-06-21 08:49:00,76.6,72.0,30.03,West,263,1.0,3.0,85,0.00,,,0.00,weatherlink.com 1.10,2013-06-21 13:49:00,
2013-06-21 09:04:00,78.7,72.0,30.02,SE,140,1.0,6.0,81,0.00,,,0.00,weatherlink.com 1.10,2013-06-21 14:04:00,
2013-06-21 09:19:00,80.3,73.0,30.02,SE,134,1.0,4.0,79,0.00,,,0.00,weatherlink.com 1.10,2013-06-21 14:19:00,
2013-06-21 09:34:00,81.4,74.0,30.02,East,98,2.0,4.0,78,0.00,,,0.00,weatherlink.com 1.10,2013-06-21 14:34:00,
2013-06-21 09:49:00,82.1,74.0,30.02,SE,124,4.0,6.0,76,0.00,,,0.00,weatherlink.com 1.10,2013-06-21 14:49:00,
2013-06-21 10:04:00,82.4,73.0,30.02,NNW,330,1.0,9.0,74,0.00,,,0.00,weatherlink.com 1.10,2013-06-21 15:04:00,
2013-06-21 10:19:00,83.4,75.0,30.02,ESE,110,4.0,6.0,75,0.00,,,0.00,weatherlink.com 1.10,2013-06-21 15:19:00,
2013-06-21 10:34:00,84.6,75.0,30.02,South,188,3.0,5.0,72,0.00,,,0.00,weatherlink.com 1.10,2013-06-21 15:34:00,
2013-06-21 10:49:00,85.3,75.0,30.02,SE,128,2.0,5.0,71,0.00,,,0.00,weatherlink.com 1.10,2013-06-21 15:49:00,
2013-06-21 11:04:00,85.4,75.0,30.02,ESE,105,1.0,8.0,71,0.00,,,0.00,weatherlink.com 1.10,2013-06-21 16:04:00,
2013-06-21 11:19:00,87.2,76.0,30.02,SSE,162,1.0,7.0,69,0.00,,,0.00,weatherlink.com 1.10,2013-06-21 16:19:00,
2013-06-21 11:34:00,87.2,75.0,30.02,SE,131,1.0,7.0,66,0.00,,,0.00,weatherlink.com 1.10,2013-06-21 16:34:00,
2013-06-21 11:49:00,86.8,76.0,30.02,WNW,301,1.0,13.0,69,0.00,,,0.00,weatherlink.com 1.10,2013-06-21 16:49:00,
2013-06-21 12:04:00,88.4,76.0,30.02,SE,138,4.0,4.0,67,0.00,,,0.00,weatherlink.com 1.10,2013-06-21 17:04:00,
2013-06-21 12:19:00,88.6,76.0,30.01,NW,309,1.0,12.0,67,0.00,,,0.00,weatherlink.com 1.10,2013-06-21 17:19:00,
2013-06-21 12:34:00,89.2,75.0,30.01,WSW,252,3.0,6.0,64,0.00,,,0.00,weatherlink.com 1.10,2013-06-21 17:34:00,
2013-06-21 12:49:00,90.3,77.0,30.01,ENE,68,3.0,3.0,66,0.00,,,0.00,weatherlink.com 1.10,2013-06-21 17:49:00,
2013-06-21 13:04:00,90.5,76.0,30.00,North,354,1.0,6.0,63,0.00,,,0.00,weatherlink.com 1.10,2013-06-21 18:04:00,
2013-06-21 13:19:00,89.9,75.0,30.00,South,180,1.0,5.0,62,0.00,,,0.00,weatherlink.com 1.10,2013-06-21 18:19:00,
2013-06-21 13:34:00,90.9,76.0,29.99,NNE,22,1.0,5.0,61,0.00,,,0.00,weatherlink.com 1.10,2013-06-21 18:34:00,
2013-06-21 13:49:00,91.6,76.0,29.99,SE,132,3.0,4.0,60,0.00,,,0.00,weatherlink.com 1.10,2013-06-21 18:49:00,
2013-06-21 14:04:00,92.3,76.0,29.98,SSE,163,1.0,5.0,59,0.00,,,0.00,weatherlink.com 1.10,2013-06-21 19:04:00,
2013-06-21 14:19:00,90.0,73.0,29.99,East,86,3.0,6.0,58,0.00,,,0.00,weatherlink.com 1.10,2013-06-21 19:19:00,
2013-06-21 14:34:00,90.9,76.0,29.98,NE,44,2.0,6.0,61,0.00,,,0.00,weatherlink.com 1.10,2013-06-21 19:34:00,
2013-06-21 14:49:00,91.2,75.0,29.98,ESE,120,1.0,4.0,60,0.00,,,0.00,weatherlink.com 1.10,2013-06-21 19:49:00,
2013-06-21 15:04:00,91.2,75.0,29.98,SE,124,2.0,5.0,60,0.00,,,0.00,weatherlink.com 1.10,2013-06-21 20:04:00,
2013-06-21 15:19:00,91.4,76.0,29.97,East,84,2.0,9.0,60,0.00,,,0.00,weatherlink.com 1.10,2013-06-21 20:19:00,
2013-06-21 15:34:00,91.7,75.0,29.97,ESE,118,2.0,6.0,58,0.00,,,0.00,weatherlink.com 1.10,2013-06-21 20:34:00,
2013-06-21 15:50:00,90.9,76.0,29.96,ESE,116,0.0,5.0,62,0.00,,,0.00,weatherlink.com 1.10,2013-06-21 20:50:00,
2013-06-21 16:05:00,92.0,75.0,29.96,ESE,117,4.0,6.0,57,0.00,,,0.00,weatherlink.com 1.10,2013-06-21 21:05:00,
2013-06-21 16:20:00,93.2,75.0,29.96,NW,322,2.0,4.0,56,0.00,,,0.00,weatherlink.com 1.10,2013-06-21 21:20:00,
2013-06-21 16:35:00,93.3,75.0,29.95,SSE,156,1.0,4.0,56,0.00,,,0.00,weatherlink.com 1.10,2013-06-21 21:35:00,
2013-06-21 16:50:00,92.4,75.0,29.95,East,100,0.0,2.0,58,0.00,,,0.00,weatherlink.com 1.10,2013-06-21 21:50:00,
2013-06-21 17:05:00,91.9,74.0,29.95,South,185,4.0,8.0,57,0.00,,,0.00,weatherlink.com 1.10,2013-06-21 22:05:00,
2013-06-21 17:20:00,92.1,75.0,29.95,ESE,117,1.0,6.0,57,0.00,,,0.00,weatherlink.com 1.10,2013-06-21 22:20:00,
2013-06-21 17:35:00,91.9,74.0,29.94,SE,124,1.0,3.0,57,0.00,,,0.00,weatherlink.com 1.10,2013-06-21 22:35:00,
2013-06-21 17:50:00,91.4,74.0,29.94,ESE,115,1.0,5.0,57,0.00,,,0.00,weatherlink.com 1.10,2013-06-21 22:50:00,
2013-06-21 18:05:00,91.3,75.0,29.94,ESE,103,1.0,2.0,60,0.00,,,0.00,weatherlink.com 1.10,2013-06-21 23:05:00,
2013-06-21 18:24:00,90.1,74.0,29.94,East,88,1.0,6.0,60,0.00,,,0.00,weatherlink.com 1.10,2013-06-21 23:24:00,
2013-06-21 18:35:00,89.1,73.0,29.93,SE,139,2.0,7.0,59,0.00,,,0.00,weatherlink.com 1.10,2013-06-21 23:35:00,
2013-06-21 18:50:00,88.4,73.0,29.93,SE,124,0.0,4.0,61,0.00,,,0.00,weatherlink.com 1.10,2013-06-21 23:50:00,
2013-06-21 19:05:00,87.6,73.0,29.93,ESE,102,1.0,3.0,63,0.00,,,0.00,weatherlink.com 1.10,2013-06-22 00:05:00,
2013-06-21 19:20:00,86.4,73.0,29.93,ESE,107,1.0,3.0,65,0.00,,,0.00,weatherlink.com 1.10,2013-06-22 00:20:00,
2013-06-21 19:35:00,85.3,73.0,29.93,East,94,1.0,1.0,67,0.00,,,0.00,weatherlink.com 1.10,2013-06-22 00:35:00,
2013-06-21 19:50:00,84.3,74.0,29.93,ENE,78,0.0,0.0,70,0.00,,,0.00,weatherlink.com 1.10,2013-06-22 00:50:00,
2013-06-21 20:05:00,83.2,73.0,29.93,ESE,109,0.0,0.0,72,0.00,,,0.00,weatherlink.com 1.10,2013-06-22 01:05:00,
2013-06-21 20:20:00,82.3,73.0,29.94,ESE,112,0.0,0.0,73,0.00,,,0.00,weatherlink.com 1.10,2013-06-22 01:20:00,
2013-06-21 20:35:00,81.4,72.0,29.94,East,99,0.0,0.0,74,0.00,,,0.00,weatherlink.com 1.10,2013-06-22 01:35:00,
2013-06-21 20:50:00,80.4,72.0,29.94,ESE,106,0.0,0.0,76,0.00,,,0.00,weatherlink.com 1.10,2013-06-22 01:50:00,
2013-06-21 21:05:00,79.6,72.0,29.94,NNE,23,0.0,0.0,77,0.00,,,0.00,weatherlink.com 1.10,2013-06-22 02:05:00,
2013-06-21 21:20:00,79.4,72.0,29.94,ESE,117,0.0,0.0,77,0.00,,,0.00,weatherlink.com 1.10,2013-06-22 02:20:00,
2013-06-21 21:35:00,79.0,72.0,29.95,ESE,117,0.0,1.0,78,0.00,,,0.00,weatherlink.com 1.10,2013-06-22 02:35:00,
2013-06-21 21:50:00,78.3,71.0,29.95,SE,125,0.0,1.0,79,0.00,,,0.00,weatherlink.com 1.10,2013-06-22 02:50:00,
2013-06-21 22:05:00,77.6,71.0,29.95,ESE,106,0.0,0.0,80,0.00,,,0.00,weatherlink.com 1.10,2013-06-22 03:05:00,
2013-06-21 22:20:00,77.2,71.0,29.96,ESE,108,0.0,1.0,82,0.00,,,0.00,weatherlink.com 1.10,2013-06-22 03:20:00,
2013-06-21 22:35:00,77.2,72.0,29.96,ESE,109,0.0,1.0,83,0.00,,,0.00,weatherlink.com 1.10,2013-06-22 03:35:00,
2013-06-21 22:50:00,76.9,72.0,29.96,East,88,0.0,0.0,84,0.00,,,0.00,weatherlink.com 1.10,2013-06-22 03:50:00,
2013-06-21 23:05:00,76.6,72.0,29.97,ESE,115,0.0,0.0,84,0.00,,,0.00,weatherlink.com 1.10,2013-06-22 04:05:00,
2013-06-21 23:20:00,76.5,72.0,29.97,SE,125,0.0,1.0,85,0.00,,,0.00,weatherlink.com 1.10,2013-06-22 04:20:00,
2013-06-21 23:35:00,76.2,71.0,29.97,SE,144,0.0,0.0,85,0.00,,,0.00,weatherlink.com 1.10,2013-06-22 04:35:00,
2013-06-21 23:50:00,76.2,71.0,29.97,ESE,115,0.0,0.0,85,0.00,,,0.00,weatherlink.com 1.10,2013-06-22 04:50:00,